sensor_id;sensor_type;location;lat;lon;timestamp;pressure;altitude;pressure_sealevel;temperature
14666;BMP280;7420;53.574;10.040;2022-11-12T00:00:12;103176.88;;;9.59
14666;BMP280;7420;53.574;10.040;2022-11-12T00:02:38;103172.38;;;9.60
14666;BMP280;7420;53.574;10.040;2022-11-12T00:05:03;103168.75;;;9.61
14666;BMP280;7420;53.574;10.040;2022-11-12T00:07:29;103170.44;;;9.62
14666;BMP280;7420;53.574;10.040;2022-11-12T00:09:54;103178.41;;;9.62
14666;BMP280;7420;53.574;10.040;2022-11-12T00:12:19;103182.16;;;9.69
14666;BMP280;7420;53.574;10.040;2022-11-12T00:14:45;103172.06;;;9.72
14666;BMP280;7420;53.574;10.040;2022-11-12T00:17:10;103167.72;;;9.71
14666;BMP280;7420;53.574;10.040;2022-11-12T00:19:36;103180.19;;;9.71
14666;BMP280;7420;53.574;10.040;2022-11-12T00:22:01;103182.41;;;9.75
14666;BMP280;7420;53.574;10.040;2022-11-12T00:24:26;103176.69;;;9.80
14666;BMP280;7420;53.574;10.040;2022-11-12T00:26:52;103185.19;;;9.83
14666;BMP280;7420;53.574;10.040;2022-11-12T00:29:17;103183.22;;;9.85
14666;BMP280;7420;53.574;10.040;2022-11-12T00:31:42;103177.31;;;9.91
14666;BMP280;7420;53.574;10.040;2022-11-12T00:34:08;103183.34;;;9.93
14666;BMP280;7420;53.574;10.040;2022-11-12T00:36:33;103180.53;;;9.95
14666;BMP280;7420;53.574;10.040;2022-11-12T00:38:58;103173.69;;;9.83
14666;BMP280;7420;53.574;10.040;2022-11-12T00:41:24;103182.16;;;9.69
14666;BMP280;7420;53.574;10.040;2022-11-12T00:43:49;103179.09;;;9.64
14666;BMP280;7420;53.574;10.040;2022-11-12T00:46:14;103161.72;;;9.69
14666;BMP280;7420;53.574;10.040;2022-11-12T00:48:40;103159.53;;;9.65
14666;BMP280;7420;53.574;10.040;2022-11-12T00:51:05;103151.84;;;9.62
14666;BMP280;7420;53.574;10.040;2022-11-12T00:53:31;103163.84;;;9.66
14666;BMP280;7420;53.574;10.040;2022-11-12T00:56:01;103158.94;;;9.61
14666;BMP280;7420;53.574;10.040;2022-11-12T00:58:30;103156.00;;;9.64
14666;BMP280;7420;53.574;10.040;2022-11-12T01:00:56;103158.25;;;9.69
14666;BMP280;7420;53.574;10.040;2022-11-12T01:03:22;103160.06;;;9.68
14666;BMP280;7420;53.574;10.040;2022-11-12T01:05:47;103171.25;;;9.72
14666;BMP280;7420;53.574;10.040;2022-11-12T01:08:13;103163.28;;;9.72
14666;BMP280;7420;53.574;10.040;2022-11-12T01:10:38;103163.41;;;9.70
14666;BMP280;7420;53.574;10.040;2022-11-12T01:13:03;103159.19;;;9.77
14666;BMP280;7420;53.574;10.040;2022-11-12T01:15:29;103167.16;;;9.77
14666;BMP280;7420;53.574;10.040;2022-11-12T01:17:54;103163.81;;;9.75
14666;BMP280;7420;53.574;10.040;2022-11-12T01:20:20;103156.81;;;9.74
14666;BMP280;7420;53.574;10.040;2022-11-12T01:22:45;103155.03;;;9.75
14666;BMP280;7420;53.574;10.040;2022-11-12T01:25:10;103154.16;;;9.74
14666;BMP280;7420;53.574;10.040;2022-11-12T01:27:36;103150.25;;;9.78
14666;BMP280;7420;53.574;10.040;2022-11-12T01:30:03;103157.91;;;9.81
14666;BMP280;7420;53.574;10.040;2022-11-12T01:32:28;103155.25;;;9.81
14666;BMP280;7420;53.574;10.040;2022-11-12T01:34:54;103157.47;;;9.86
14666;BMP280;7420;53.574;10.040;2022-11-12T01:37:19;103160.00;;;9.87
14666;BMP280;7420;53.574;10.040;2022-11-12T01:39:45;103161.38;;;9.91
14666;BMP280;7420;53.574;10.040;2022-11-12T01:42:11;103161.91;;;9.95
14666;BMP280;7420;53.574;10.040;2022-11-12T01:44:39;103160.97;;;9.86
14666;BMP280;7420;53.574;10.040;2022-11-12T01:47:22;103161.38;;;9.91
14666;BMP280;7420;53.574;10.040;2022-11-12T01:49:55;103166.41;;;9.94
14666;BMP280;7420;53.574;10.040;2022-11-12T01:52:35;103170.06;;;9.93
14666;BMP280;7420;53.574;10.040;2022-11-12T01:55:21;103174.38;;;10.04
14666;BMP280;7420;53.574;10.040;2022-11-12T01:58:13;103178.69;;;10.05
14666;BMP280;7420;53.574;10.040;2022-11-12T02:00:39;103177.16;;;10.02
14666;BMP280;7420;53.574;10.040;2022-11-12T02:03:09;103170.06;;;9.93
14666;BMP280;7420;53.574;10.040;2022-11-12T02:05:37;103181.91;;;9.99
14666;BMP280;7420;53.574;10.040;2022-11-12T02:08:04;103170.03;;;10.03
14666;BMP280;7420;53.574;10.040;2022-11-12T02:10:30;103174.19;;;10.05
14666;BMP280;7420;53.574;10.040;2022-11-12T02:12:55;103170.56;;;10.06
14666;BMP280;7420;53.574;10.040;2022-11-12T02:15:40;103176.72;;;10.07
14666;BMP280;7420;53.574;10.040;2022-11-12T02:18:06;103170.56;;;10.06
14666;BMP280;7420;53.574;10.040;2022-11-12T02:20:33;103163.56;;;10.05
14666;BMP280;7420;53.574;10.040;2022-11-12T02:22:59;103164.66;;;10.12
14666;BMP280;7420;53.574;10.040;2022-11-12T02:25:25;103159.69;;;10.00
14666;BMP280;7420;53.574;10.040;2022-11-12T02:27:52;103159.94;;;9.97
14666;BMP280;7420;53.574;10.040;2022-11-12T02:30:29;103154.94;;;9.94
14666;BMP280;7420;53.574;10.040;2022-11-12T02:32:55;103150.06;;;9.89
14666;BMP280;7420;53.574;10.040;2022-11-12T02:35:21;103153.81;;;9.96
14666;BMP280;7420;53.574;10.040;2022-11-12T02:37:46;103151.88;;;9.89
14666;BMP280;7420;53.574;10.040;2022-11-12T02:40:11;103148.97;;;9.82
14666;BMP280;7420;53.574;10.040;2022-11-12T02:42:37;103156.94;;;9.82
14666;BMP280;7420;53.574;10.040;2022-11-12T02:45:02;103154.72;;;9.78
14666;BMP280;7420;53.574;10.040;2022-11-12T02:47:28;103150.28;;;9.69
14666;BMP280;7420;53.574;10.040;2022-11-12T02:49:53;103149.88;;;9.64
14666;BMP280;7420;53.574;10.040;2022-11-12T02:52:18;103164.25;;;9.61
14666;BMP280;7420;53.574;10.040;2022-11-12T02:54:44;103163.16;;;9.64
14666;BMP280;7420;53.574;10.040;2022-11-12T02:57:09;103152.00;;;9.60
14666;BMP280;7420;53.574;10.040;2022-11-12T02:59:34;103161.22;;;9.56
14666;BMP280;7420;53.574;10.040;2022-11-12T03:02:00;103171.28;;;9.53
14666;BMP280;7420;53.574;10.040;2022-11-12T03:04:25;103165.44;;;9.49
14666;BMP280;7420;53.574;10.040;2022-11-12T03:06:50;103153.44;;;9.45
14666;BMP280;7420;53.574;10.040;2022-11-12T03:09:16;103156.38;;;9.42
14666;BMP280;7420;53.574;10.040;2022-11-12T03:11:41;103169.50;;;9.34
14666;BMP280;7420;53.574;10.040;2022-11-12T03:14:07;103163.78;;;9.29
14666;BMP280;7420;53.574;10.040;2022-11-12T03:16:32;103177.50;;;9.25
14666;BMP280;7420;53.574;10.040;2022-11-12T03:18:58;103175.28;;;9.20
14666;BMP280;7420;53.574;10.040;2022-11-12T03:21:23;103175.41;;;9.10
14666;BMP280;7420;53.574;10.040;2022-11-12T03:23:48;103175.28;;;9.02
14666;BMP280;7420;53.574;10.040;2022-11-12T03:26:14;103176.38;;;8.90
14666;BMP280;7420;53.574;10.040;2022-11-12T03:28:39;103176.09;;;8.83
14666;BMP280;7420;53.574;10.040;2022-11-12T03:31:04;103185.03;;;8.73
14666;BMP280;7420;53.574;10.040;2022-11-12T03:33:30;103192.41;;;8.69
14666;BMP280;7420;53.574;10.040;2022-11-12T03:35:55;103190.03;;;8.66
14666;BMP280;7420;53.574;10.040;2022-11-12T03:38:20;103182.50;;;8.62
14666;BMP280;7420;53.574;10.040;2022-11-12T03:40:46;103183.22;;;8.64
14666;BMP280;7420;53.574;10.040;2022-11-12T03:43:11;103175.34;;;8.43
14666;BMP280;7420;53.574;10.040;2022-11-12T03:45:36;103178.53;;;8.37
14666;BMP280;7420;53.574;10.040;2022-11-12T03:48:02;103170.44;;;8.29
14666;BMP280;7420;53.574;10.040;2022-11-12T03:50:28;103176.28;;;8.23
14666;BMP280;7420;53.574;10.040;2022-11-12T03:52:56;103199.56;;;8.20
14666;BMP280;7420;53.574;10.040;2022-11-12T03:55:24;103182.69;;;8.21
14666;BMP280;7420;53.574;10.040;2022-11-12T03:57:51;103176.19;;;8.14
14666;BMP280;7420;53.574;10.040;2022-11-12T04:00:18;103199.44;;;8.21
14666;BMP280;7420;53.574;10.040;2022-11-12T04:02:44;103181.97;;;8.19
14666;BMP280;7420;53.574;10.040;2022-11-12T04:05:09;103172.81;;;8.02
14666;BMP280;7420;53.574;10.040;2022-11-12T04:08:04;103192.84;;;7.86
14666;BMP280;7420;53.574;10.040;2022-11-12T04:10:48;103197.81;;;8.09
14666;BMP280;7420;53.574;10.040;2022-11-12T04:15:58;103195.78;;;7.93
14666;BMP280;7420;53.574;10.040;2022-11-12T04:18:43;103208.84;;;7.85
14666;BMP280;7420;53.574;10.040;2022-11-12T04:21:38;103193.63;;;7.77
14666;BMP280;7420;53.574;10.040;2022-11-12T04:24:44;103194.78;;;7.84
14666;BMP280;7420;53.574;10.040;2022-11-12T04:27:31;103186.56;;;7.87
14666;BMP280;7420;53.574;10.040;2022-11-12T04:29:56;103184.06;;;7.65
14666;BMP280;7420;53.574;10.040;2022-11-12T04:32:54;103205.19;;;7.76
14666;BMP280;7420;53.574;10.040;2022-11-12T04:35:22;103180.78;;;7.73
14666;BMP280;7420;53.574;10.040;2022-11-12T04:37:47;103190.69;;;7.50
14666;BMP280;7420;53.574;10.040;2022-11-12T04:40:15;103209.78;;;7.33
14666;BMP280;7420;53.574;10.040;2022-11-12T04:43:00;103210.22;;;7.59
14666;BMP280;7420;53.574;10.040;2022-11-12T04:45:46;103200.09;;;7.43
14666;BMP280;7420;53.574;10.040;2022-11-12T04:48:12;103209.00;;;7.42
14666;BMP280;7420;53.574;10.040;2022-11-12T04:50:38;103202.50;;;7.46
14666;BMP280;7420;53.574;10.040;2022-11-12T04:53:04;103209.53;;;7.36
14666;BMP280;7420;53.574;10.040;2022-11-12T04:55:30;103213.78;;;7.48
14666;BMP280;7420;53.574;10.040;2022-11-12T04:57:56;103189.81;;;7.29
14666;BMP280;7420;53.574;10.040;2022-11-12T05:00:21;103206.16;;;7.34
14666;BMP280;7420;53.574;10.040;2022-11-12T05:02:48;103201.31;;;7.19
14666;BMP280;7420;53.574;10.040;2022-11-12T05:05:14;103213.91;;;7.26
14666;BMP280;7420;53.574;10.040;2022-11-12T05:07:39;103208.94;;;7.33
14666;BMP280;7420;53.574;10.040;2022-11-12T05:10:05;103204.09;;;7.17
14666;BMP280;7420;53.574;10.040;2022-11-12T05:12:30;103206.50;;;7.20
14666;BMP280;7420;53.574;10.040;2022-11-12T05:14:56;103187.06;;;7.10
14666;BMP280;7420;53.574;10.040;2022-11-12T05:17:21;103200.00;;;6.93
14666;BMP280;7420;53.574;10.040;2022-11-12T05:19:47;103203.13;;;7.18
14666;BMP280;7420;53.574;10.040;2022-11-12T05:22:12;103205.53;;;7.21
14666;BMP280;7420;53.574;10.040;2022-11-12T05:24:39;103195.28;;;6.96
14666;BMP280;7420;53.574;10.040;2022-11-12T05:27:10;103201.25;;;7.09
14666;BMP280;7420;53.574;10.040;2022-11-12T05:29:36;103208.22;;;7.10
14666;BMP280;7420;53.574;10.040;2022-11-12T05:32:03;103204.59;;;7.11
14666;BMP280;7420;53.574;10.040;2022-11-12T05:34:28;103208.69;;;7.15
14666;BMP280;7420;53.574;10.040;2022-11-12T05:36:54;103201.75;;;7.03
14666;BMP280;7420;53.574;10.040;2022-11-12T05:39:19;103201.75;;;7.03
14666;BMP280;7420;53.574;10.040;2022-11-12T05:41:44;103199.09;;;7.03
14666;BMP280;7420;53.574;10.040;2022-11-12T05:44:10;103195.22;;;6.87
14666;BMP280;7420;53.574;10.040;2022-11-12T05:46:35;103211.66;;;6.90
14666;BMP280;7420;53.574;10.040;2022-11-12T05:49:01;103215.41;;;6.88
14666;BMP280;7420;53.574;10.040;2022-11-12T05:51:26;103209.97;;;6.89
14666;BMP280;7420;53.574;10.040;2022-11-12T05:53:52;103214.09;;;6.82
14666;BMP280;7420;53.574;10.040;2022-11-12T05:56:17;103207.66;;;6.65
14666;BMP280;7420;53.574;10.040;2022-11-12T05:58:42;103217.25;;;6.77
14666;BMP280;7420;53.574;10.040;2022-11-12T06:01:08;103223.00;;;6.82
14666;BMP280;7420;53.574;10.040;2022-11-12T06:03:33;103215.81;;;6.73
14666;BMP280;7420;53.574;10.040;2022-11-12T06:05:59;103236.81;;;6.74
14666;BMP280;7420;53.574;10.040;2022-11-12T06:08:24;103219.09;;;6.65
14666;BMP280;7420;53.574;10.040;2022-11-12T06:10:50;103226.06;;;6.44
14666;BMP280;7420;53.574;10.040;2022-11-12T06:13:17;103235.78;;;6.55
14666;BMP280;7420;53.574;10.040;2022-11-12T06:15:42;103241.78;;;6.68
14666;BMP280;7420;53.574;10.040;2022-11-12T06:18:08;103231.13;;;6.47
14666;BMP280;7420;53.574;10.040;2022-11-12T06:20:34;103235.78;;;6.55
14666;BMP280;7420;53.574;10.040;2022-11-12T06:23:00;103246.59;;;6.63
14666;BMP280;7420;53.574;10.040;2022-11-12T06:25:25;103230.97;;;6.49
14666;BMP280;7420;53.574;10.040;2022-11-12T06:27:51;103236.06;;;6.30
14666;BMP280;7420;53.574;10.040;2022-11-12T06:30:16;103242.31;;;6.40
14666;BMP280;7420;53.574;10.040;2022-11-12T06:32:45;103247.13;;;6.46
14666;BMP280;7420;53.574;10.040;2022-11-12T06:35:11;103248.28;;;6.53
14666;BMP280;7420;53.574;10.040;2022-11-12T06:37:37;103239.28;;;6.44
14666;BMP280;7420;53.574;10.040;2022-11-12T06:40:02;103250.59;;;6.35
14666;BMP280;7420;53.574;10.040;2022-11-12T06:42:28;103251.06;;;6.40
14666;BMP280;7420;53.574;10.040;2022-11-12T06:44:53;103251.78;;;6.42
14666;BMP280;7420;53.574;10.040;2022-11-12T06:47:18;103252.16;;;6.38
14666;BMP280;7420;53.574;10.040;2022-11-12T06:49:44;103237.88;;;6.18
14666;BMP280;7420;53.574;10.040;2022-11-12T06:52:09;103251.78;;;5.98
14666;BMP280;7420;53.574;10.040;2022-11-12T06:54:34;103267.41;;;6.12
14666;BMP280;7420;53.574;10.040;2022-11-12T06:57:00;103266.69;;;6.21
14666;BMP280;7420;53.574;10.040;2022-11-12T06:59:25;103264.16;;;6.09
14666;BMP280;7420;53.574;10.040;2022-11-12T07:01:51;103255.75;;;6.04
14666;BMP280;7420;53.574;10.040;2022-11-12T07:04:16;103272.31;;;5.95
14666;BMP280;7420;53.574;10.040;2022-11-12T07:06:42;103270.16;;;6.00
14666;BMP280;7420;53.574;10.040;2022-11-12T07:09:07;103270.72;;;5.92
14666;BMP280;7420;53.574;10.040;2022-11-12T07:11:33;103267.13;;;5.82
14666;BMP280;7420;53.574;10.040;2022-11-12T07:13:58;103278.03;;;5.78
14666;BMP280;7420;53.574;10.040;2022-11-12T07:16:23;103265.81;;;5.88
14666;BMP280;7420;53.574;10.040;2022-11-12T07:18:49;103268.47;;;5.88
14666;BMP280;7420;53.574;10.040;2022-11-12T07:21:16;103274.69;;;5.87
14666;BMP280;7420;53.574;10.040;2022-11-12T07:23:42;103284.31;;;6.10
14666;BMP280;7420;53.574;10.040;2022-11-12T07:26:25;103277.63;;;6.06
14666;BMP280;7420;53.574;10.040;2022-11-12T07:28:51;103283.97;;;6.03
14666;BMP280;7420;53.574;10.040;2022-11-12T07:31:18;103283.38;;;6.00
14666;BMP280;7420;53.574;10.040;2022-11-12T07:33:44;103293.56;;;6.04
14666;BMP280;7420;53.574;10.040;2022-11-12T07:36:12;103293.19;;;6.09
14666;BMP280;7420;53.574;10.040;2022-11-12T07:38:40;103285.53;;;6.28
14666;BMP280;7420;53.574;10.040;2022-11-12T07:41:22;103280.41;;;6.26
14666;BMP280;7420;53.574;10.040;2022-11-12T07:43:49;103276.88;;;6.26
14666;BMP280;7420;53.574;10.040;2022-11-12T07:46:17;103284.00;;;6.25
14666;BMP280;7420;53.574;10.040;2022-11-12T07:48:44;103284.34;;;6.43
14666;BMP280;7420;53.574;10.040;2022-11-12T07:51:36;103283.88;;;6.38
14666;BMP280;7420;53.574;10.040;2022-11-12T07:54:01;103279.28;;;6.29
14666;BMP280;7420;53.574;10.040;2022-11-12T07:56:28;103274.16;;;6.27
14666;BMP280;7420;53.574;10.040;2022-11-12T07:58:54;103281.59;;;6.22
14666;BMP280;7420;53.574;10.040;2022-11-12T08:03:51;103287.81;;;6.32
14666;BMP280;7420;53.574;10.040;2022-11-12T08:06:16;103299.97;;;6.35
14666;BMP280;7420;53.574;10.040;2022-11-12T08:08:41;103283.50;;;6.53
14666;BMP280;7420;53.574;10.040;2022-11-12T08:11:07;103276.88;;;6.48
14666;BMP280;7420;53.574;10.040;2022-11-12T08:13:32;103298.00;;;6.48
14666;BMP280;7420;53.574;10.040;2022-11-12T08:15:58;103308.34;;;6.73
14666;BMP280;7420;53.574;10.040;2022-11-12T08:18:24;103290.31;;;6.78
14666;BMP280;7420;53.574;10.040;2022-11-12T08:20:50;103281.91;;;6.73
14666;BMP280;7420;53.574;10.040;2022-11-12T08:23:15;103290.66;;;6.84
14666;BMP280;7420;53.574;10.040;2022-11-12T08:25:41;103291.63;;;6.83
14666;BMP280;7420;53.574;10.040;2022-11-12T08:28:06;103302.03;;;6.95
14666;BMP280;7420;53.574;10.040;2022-11-12T08:30:31;103306.22;;;7.09
14666;BMP280;7420;53.574;10.040;2022-11-12T08:33:02;103301.84;;;7.19
14666;BMP280;7420;53.574;10.040;2022-11-12T08:35:29;103304.16;;;7.23
14666;BMP280;7420;53.574;10.040;2022-11-12T08:38:03;103300.00;;;7.30
14666;BMP280;7420;53.574;10.040;2022-11-12T08:40:29;103301.44;;;7.34
14666;BMP280;7420;53.574;10.040;2022-11-12T08:42:58;103307.69;;;7.33
14666;BMP280;7420;53.574;10.040;2022-11-12T08:45:25;103305.97;;;7.43
14666;BMP280;7420;53.574;10.040;2022-11-12T08:47:50;103315.16;;;7.60
14666;BMP280;7420;53.574;10.040;2022-11-12T08:50:16;103312.53;;;7.60
14666;BMP280;7420;53.574;10.040;2022-11-12T08:52:41;103317.50;;;7.53
14666;BMP280;7420;53.574;10.040;2022-11-12T08:55:07;103325.91;;;7.58
14666;BMP280;7420;53.574;10.040;2022-11-12T08:57:39;103327.03;;;7.65
14666;BMP280;7420;53.574;10.040;2022-11-12T09:00:05;103322.75;;;7.64
14666;BMP280;7420;53.574;10.040;2022-11-12T09:02:31;103312.66;;;7.58
14666;BMP280;7420;53.574;10.040;2022-11-12T09:04:56;103326.03;;;7.77
14666;BMP280;7420;53.574;10.040;2022-11-12T09:07:21;103325.25;;;7.86
14666;BMP280;7420;53.574;10.040;2022-11-12T09:09:47;103315.50;;;7.87
14666;BMP280;7420;53.574;10.040;2022-11-12T09:12:12;103309.84;;;7.91
14666;BMP280;7420;53.574;10.040;2022-11-12T09:14:43;103325.94;;;8.19
14666;BMP280;7420;53.574;10.040;2022-11-12T09:17:08;103323.28;;;8.19
14666;BMP280;7420;53.574;10.040;2022-11-12T09:19:33;103322.63;;;8.27
14666;BMP280;7420;53.574;10.040;2022-11-12T09:21:59;103318.59;;;8.32
14666;BMP280;7420;53.574;10.040;2022-11-12T09:24:24;103324.53;;;8.45
14666;BMP280;7420;53.574;10.040;2022-11-12T09:26:52;103312.00;;;8.57
14666;BMP280;7420;53.574;10.040;2022-11-12T09:29:17;103316.47;;;8.56
14666;BMP280;7420;53.574;10.040;2022-11-12T09:31:43;103319.25;;;8.55
14666;BMP280;7420;53.574;10.040;2022-11-12T09:34:08;103321.25;;;8.62
14666;BMP280;7420;53.574;10.040;2022-11-12T09:36:34;103321.00;;;8.75
14666;BMP280;7420;53.574;10.040;2022-11-12T09:38:59;103310.13;;;8.78
14666;BMP280;7420;53.574;10.040;2022-11-12T09:41:38;103312.66;;;8.89
14666;BMP280;7420;53.574;10.040;2022-11-12T09:44:13;103320.22;;;8.93
14666;BMP280;7420;53.574;10.040;2022-11-12T09:46:45;103317.75;;;9.01
14666;BMP280;7420;53.574;10.040;2022-11-12T09:49:15;103325.00;;;9.09
14666;BMP280;7420;53.574;10.040;2022-11-12T09:52:10;103325.00;;;9.27
14666;BMP280;7420;53.574;10.040;2022-11-12T09:54:37;103314.69;;;9.34
14666;BMP280;7420;53.574;10.040;2022-11-12T09:57:02;103314.97;;;9.40
14666;BMP280;7420;53.574;10.040;2022-11-12T09:59:31;103329.78;;;9.43
14666;BMP280;7420;53.574;10.040;2022-11-12T10:02:20;103326.16;;;9.53
14666;BMP280;7420;53.574;10.040;2022-11-12T10:10:48;103313.44;;;9.76
14666;BMP280;7420;53.574;10.040;2022-11-12T10:24:41;103323.66;;;10.72
14666;BMP280;7420;53.574;10.040;2022-11-12T10:27:31;103330.59;;;10.82
14666;BMP280;7420;53.574;10.040;2022-11-12T10:30:01;103335.44;;;10.96
14666;BMP280;7420;53.574;10.040;2022-11-12T10:32:27;103341.53;;;11.06
14666;BMP280;7420;53.574;10.040;2022-11-12T10:34:53;103347.84;;;11.23
14666;BMP280;7420;53.574;10.040;2022-11-12T10:37:26;103337.69;;;11.36
14666;BMP280;7420;53.574;10.040;2022-11-12T10:39:52;103330.97;;;11.32
14666;BMP280;7420;53.574;10.040;2022-11-12T10:42:21;103333.66;;;11.66
14666;BMP280;7420;53.574;10.040;2022-11-12T10:44:47;103343.09;;;11.96
14666;BMP280;7420;53.574;10.040;2022-11-12T10:47:32;103339.91;;;11.92
14666;BMP280;7420;53.574;10.040;2022-11-12T10:52:33;103322.34;;;12.07
14666;BMP280;7420;53.574;10.040;2022-11-12T10:55:20;103324.25;;;12.48
14666;BMP280;7420;53.574;10.040;2022-11-12T10:58:02;103325.72;;;12.84
14666;BMP280;7420;53.574;10.040;2022-11-12T11:00:28;103332.28;;;12.89
14666;BMP280;7420;53.574;10.040;2022-11-12T11:02:54;103317.38;;;13.36
14666;BMP280;7420;53.574;10.040;2022-11-12T11:07:56;103307.22;;;13.56
14666;BMP280;7420;53.574;10.040;2022-11-12T11:10:32;103314.88;;;14.06
14666;BMP280;7420;53.574;10.040;2022-11-12T11:13:18;103313.13;;;14.45
14666;BMP280;7420;53.574;10.040;2022-11-12T11:16:05;103314.66;;;14.78
14666;BMP280;7420;53.574;10.040;2022-11-12T11:18:32;103303.94;;;14.86
14666;BMP280;7420;53.574;10.040;2022-11-12T11:24:34;103295.50;;;14.97
14666;BMP280;7420;53.574;10.040;2022-11-12T11:32:16;103291.84;;;15.20
14666;BMP280;7420;53.574;10.040;2022-11-12T11:35:17;103284.16;;;15.48
14666;BMP280;7420;53.574;10.040;2022-11-12T11:40:37;103288.50;;;16.72
14666;BMP280;7420;53.574;10.040;2022-11-12T11:43:27;103284.69;;;16.46
14666;BMP280;7420;53.574;10.040;2022-11-12T11:57:02;103297.38;;;15.86
14666;BMP280;7420;53.574;10.040;2022-11-12T12:10:19;103291.59;;;17.05
14666;BMP280;7420;53.574;10.040;2022-11-12T12:18:03;103297.31;;;16.09
14666;BMP280;7420;53.574;10.040;2022-11-12T12:21:11;103290.88;;;15.81
14666;BMP280;7420;53.574;10.040;2022-11-12T12:23:45;103290.66;;;15.68
14666;BMP280;7420;53.574;10.040;2022-11-12T12:26:14;103286.22;;;15.60
14666;BMP280;7420;53.574;10.040;2022-11-12T12:28:59;103276.31;;;15.61
14666;BMP280;7420;53.574;10.040;2022-11-12T12:31:29;103281.94;;;15.21
14666;BMP280;7420;53.574;10.040;2022-11-12T12:33:58;103281.47;;;14.95
14666;BMP280;7420;53.574;10.040;2022-11-12T12:36:38;103286.44;;;14.05
14666;BMP280;7420;53.574;10.040;2022-11-12T12:44:08;103269.13;;;13.62
14666;BMP280;7420;53.574;10.040;2022-11-12T12:46:39;103266.63;;;13.52
14666;BMP280;7420;53.574;10.040;2022-11-12T12:49:12;103266.78;;;13.27
14666;BMP280;7420;53.574;10.040;2022-11-12T12:51:38;103260.75;;;13.25
14666;BMP280;7420;53.574;10.040;2022-11-12T12:57:27;103256.91;;;13.11
14666;BMP280;7420;53.574;10.040;2022-11-12T13:00:25;103250.41;;;13.14
14666;BMP280;7420;53.574;10.040;2022-11-12T13:02:53;103246.06;;;13.05
14666;BMP280;7420;53.574;10.040;2022-11-12T13:05:34;103250.75;;;13.27
14666;BMP280;7420;53.574;10.040;2022-11-12T13:08:04;103248.41;;;13.24
14666;BMP280;7420;53.574;10.040;2022-11-12T13:21:16;103229.38;;;13.27
14666;BMP280;7420;53.574;10.040;2022-11-12T13:23:47;103228.88;;;13.15
14666;BMP280;7420;53.574;10.040;2022-11-12T13:26:52;103237.72;;;13.08
14666;BMP280;7420;53.574;10.040;2022-11-12T13:29:22;103228.03;;;13.23
14666;BMP280;7420;53.574;10.040;2022-11-12T13:31:47;103229.22;;;13.28
14666;BMP280;7420;53.574;10.040;2022-11-12T13:34:30;103224.38;;;13.24
14666;BMP280;7420;53.574;10.040;2022-11-12T13:36:57;103231.69;;;13.14
14666;BMP280;7420;53.574;10.040;2022-11-12T13:39:25;103223.84;;;13.04
14666;BMP280;7420;53.574;10.040;2022-11-12T13:41:57;103219.19;;;13.06
14666;BMP280;7420;53.574;10.040;2022-11-12T13:44:41;103212.84;;;13.07
14666;BMP280;7420;53.574;10.040;2022-11-12T13:47:17;103217.22;;;13.24
14666;BMP280;7420;53.574;10.040;2022-11-12T13:49:45;103213.03;;;13.30
14666;BMP280;7420;53.574;10.040;2022-11-12T13:52:13;103209.19;;;13.24
14666;BMP280;7420;53.574;10.040;2022-11-12T13:54:39;103210.69;;;13.43
14666;BMP280;7420;53.574;10.040;2022-11-12T13:59:49;103213.47;;;13.81
14666;BMP280;7420;53.574;10.040;2022-11-12T14:02:23;103215.00;;;14.30
14666;BMP280;7420;53.574;10.040;2022-11-12T14:04:50;103210.44;;;14.46
14666;BMP280;7420;53.574;10.040;2022-11-12T14:10:00;103208.69;;;14.23
14666;BMP280;7420;53.574;10.040;2022-11-12T14:12:51;103208.03;;;14.21
14666;BMP280;7420;53.574;10.040;2022-11-12T14:15:32;103202.06;;;15.02
14666;BMP280;7420;53.574;10.040;2022-11-12T14:18:14;103195.38;;;15.43
14666;BMP280;7420;53.574;10.040;2022-11-12T14:20:42;103199.63;;;14.62
14666;BMP280;7420;53.574;10.040;2022-11-12T14:23:18;103194.09;;;14.33
14666;BMP280;7420;53.574;10.040;2022-11-12T14:25:50;103200.16;;;14.27
14666;BMP280;7420;53.574;10.040;2022-11-12T14:30:54;103194.94;;;14.64
14666;BMP280;7420;53.574;10.040;2022-11-12T14:33:22;103193.47;;;14.23
14666;BMP280;7420;53.574;10.040;2022-11-12T14:35:50;103203.19;;;14.55
14666;BMP280;7420;53.574;10.040;2022-11-12T14:38:23;103202.88;;;13.95
14666;BMP280;7420;53.574;10.040;2022-11-12T14:43:41;103204.94;;;13.85
14666;BMP280;7420;53.574;10.040;2022-11-12T14:46:19;103195.94;;;13.78
14666;BMP280;7420;53.574;10.040;2022-11-12T14:48:53;103205.84;;;13.22
14666;BMP280;7420;53.574;10.040;2022-11-12T14:51:21;103213.50;;;13.01
14666;BMP280;7420;53.574;10.040;2022-11-12T14:53:53;103204.72;;;12.67
14666;BMP280;7420;53.574;10.040;2022-11-12T14:56:43;103202.69;;;12.46
14666;BMP280;7420;53.574;10.040;2022-11-12T14:59:14;103209.47;;;12.32
14666;BMP280;7420;53.574;10.040;2022-11-12T15:02:10;103203.06;;;12.17
14666;BMP280;7420;53.574;10.040;2022-11-12T15:05:00;103193.00;;;12.03
14666;BMP280;7420;53.574;10.040;2022-11-12T15:07:32;103197.88;;;11.82
14666;BMP280;7420;53.574;10.040;2022-11-12T15:09:59;103203.78;;;11.68
14666;BMP280;7420;53.574;10.040;2022-11-12T15:12:27;103204.25;;;11.64
14666;BMP280;7420;53.574;10.040;2022-11-12T15:15:07;103212.72;;;11.59
14666;BMP280;7420;53.574;10.040;2022-11-12T15:17:34;103203.66;;;11.52
14666;BMP280;7420;53.574;10.040;2022-11-12T15:20:05;103197.41;;;11.44
14666;BMP280;7420;53.574;10.040;2022-11-12T15:22:36;103190.22;;;11.37
14666;BMP280;7420;53.574;10.040;2022-11-12T15:27:44;103195.66;;;11.10
14666;BMP280;7420;53.574;10.040;2022-11-12T15:30:18;103199.44;;;10.90
14666;BMP280;7420;53.574;10.040;2022-11-12T15:32:45;103190.69;;;10.80
14666;BMP280;7420;53.574;10.040;2022-11-12T15:35:31;103192.81;;;10.76
14666;BMP280;7420;53.574;10.040;2022-11-12T15:37:59;103193.13;;;10.91
14666;BMP280;7420;53.574;10.040;2022-11-12T15:40:25;103193.22;;;10.99
14666;BMP280;7420;53.574;10.040;2022-11-12T15:42:51;103194.13;;;10.90
14666;BMP280;7420;53.574;10.040;2022-11-12T15:45:19;103200.31;;;10.63
14666;BMP280;7420;53.574;10.040;2022-11-12T15:47:45;103202.66;;;10.49
14666;BMP280;7420;53.574;10.040;2022-11-12T15:50:20;103201.97;;;10.47
14666;BMP280;7420;53.574;10.040;2022-11-12T15:52:47;103197.50;;;10.47
14666;BMP280;7420;53.574;10.040;2022-11-12T15:55:13;103192.75;;;10.24